KLRD

Laredo International Airport

Airport
ICAO code
KLRD
Summary
ICAO Region
NAM
ICAO Territory
Location

Laredo, Texas,

Coordinates
27° 32' 37" N , 99° 27' 15" W
KCC
Airport LOS
Parallel Runway Operation
Metar
Observation
KLRD 070856Z AUTO 18006KT 10SM -RA OVC110 22/21 A3015 RMK AO2 SLP205 P0000 60000 T02220211 57004
Station
Laredo, Laredo International Airport
Date/Time
2022-10-07 08:56:00
Wind direction
180°
Wind speed
06 kts
Lowest cloud amount
overcast
Temperature
22.2°C
Dew point
21.1°C
Humidity
93%
Weather condition
light rain

Description

Laredo International Airport is a public use airport located 6 km northeast of the central business district of Laredo, a city in Webb County, Texas.

Climatology

Hot, semi-arid/Steppe climate (Köppen climate classification BSh) - hot, sometimes extremely hot summers and mild to warm winters, with low annual precipitation.

Runways

Designator Length Width Surface Rops
14/32 1807 46 CON Yes/Yes
17R/35L 2387 46 ASP Yes/Yes
17L/35R 2510 46 CON Yes/Yes

Airport map

Aerial View

SKYbrary Partners:

Safety knowledge contributed by: